Date,TemperatureHighF,TemperatureAvgF,TemperatureLowF,DewpointHighF,DewpointAvgF,DewpointLowF,HumidityHigh,HumidityAvg,HumidityLow,PressureMaxIn,PressureMinIn,WindSpeedMaxMPH,WindSpeedAvgMPH,GustSpeedMaxMPH,PrecipitationSumIn
2013-1-1,26.5,16.4,2.3,25.2,11.5,-1.2,95,81,70,29.91,29.69,23,4,23,0.00
2013-1-2,15.1,4.4,-13.3,11.6,0.9,-16.7,90,85,79,30.20,29.86,18,2,18,0.00
2013-1-3,13.6,-1.5,-18.7,11.4,-6.6,-22.5,92,79,53,30.23,30.00,6,0,6,0.00
2013-1-4,27.2,23.5,13.4,23.5,20.2,11.2,94,87,78,30.00,29.75,24,4,24,0.00
2013-1-5,28.0,21.5,8.5,23.5,16.1,6.4,93,80,63,30.18,29.77,20,4,20,0.00
2013-1-6,30.7,24.8,10.6,28.6,22.3,8.5,95,90,83,30.14,29.88,11,1,11,0.00
2013-1-7,30.5,17.6,5.4,27.9,14.0,3.1,94,86,68,30.32,29.90,14,2,14,0.00
2013-1-8,36.1,23.6,6.7,22.6,17.1,4.4,94,78,56,30.34,30.23,15,1,15,0.06
2013-1-9,42.0,28.3,13.4,32.9,22.3,11.6,95,79,54,30.34,29.93,27,2,27,0.10
2013-1-10,36.5,30.5,19.9,30.3,22.9,17.4,93,74,59,30.50,29.99,26,5,26,0.00
2013-1-11,34.9,26.9,15.8,31.4,22.1,13.9,95,83,55,30.49,30.10,17,3,17,0.00
2013-1-12,48.7,37.3,31.0,42.8,35.4,29.9,98,93,79,30.12,30.03,8,1,8,0.02
2013-1-13,57.8,41.3,30.8,47.7,38.7,30.0,97,91,68,30.07,29.86,13,1,13,0.00
2013-1-14,48.8,38.8,28.2,46.9,33.7,21.6,97,83,57,30.21,29.74,21,3,21,0.01
2013-1-15,28.7,25.5,21.8,22.6,20.6,18.3,89,81,72,30.26,30.16,8,1,8,0.00
2013-1-16,28.3,26.0,23.7,26.8,23.4,18.9,95,90,76,30.18,29.74,15,2,15,0.00
2013-1-17,31.0,21.8,8.4,27.0,15.4,-1.0,93,77,60,30.07,29.74,22,4,22,0.00
2013-1-18,16.4,5.5,-7.9,5.9,-2.8,-10.7,89,70,42,30.35,30.01,18,1,18,0.00
2013-1-19,37.5,28.7,9.6,26.1,18.0,5.5,90,66,48,30.26,29.74,15,2,15,0.02
2013-1-20,42.1,29.2,12.5,31.3,18.4,-1.0,94,64,49,29.85,29.41,34,6,34,0.03
2013-1-21,18.1,13.0,7.6,11.3,3.9,-2.9,90,67,54,29.98,29.73,22,2,22,0.00
2013-1-22,13.8,7.6,0.8,11.6,2.4,-8.7,91,79,60,30.00,29.72,20,2,20,0.00
2013-1-23,1.2,-4.6,-11.7,-8.3,-15.1,-17.4,82,60,44,30.12,29.98,20,4,20,0.00
2013-1-24,6.5,-4.8,-18.4,-8.9,-14.0,-22.6,85,66,43,30.31,30.10,21,4,21,0.00
2013-1-25,9.5,1.4,-7.2,1.3,-7.4,-11.6,85,67,45,30.35,30.06,14,2,14,0.00
2013-1-26,9.9,3.9,-4.4,1.2,-3.0,-8.3,90,74,45,30.26,30.03,20,3,20,0.00
2013-1-27,15.7,6.9,0.1,1.2,-1.2,-5.3,87,71,44,30.48,30.26,18,3,18,0.00
2013-1-28,20.6,14.6,3.7,18.2,10.4,-0.3,92,83,56,30.45,29.97,15,1,15,0.00
2013-1-29,32.9,26.1,19.5,30.1,24.1,17.6,95,92,85,30.13,29.98,16,2,16,0.01
2013-1-30,53.9,43.3,31.6,50.9,41.8,30.1,98,95,85,30.01,29.26,17,3,17,0.29
2013-1-31,49.2,33.7,18.5,48.7,27.6,8.2,98,79,56,29.44,28.77,31,5,31,0.84